createdAt,value
2018-12-15T00:00:52.869Z,11.13
2018-12-15T00:03:56.081Z,10.67
2018-12-15T00:06:59.415Z,11.50
2018-12-15T00:10:02.615Z,10.73
2018-12-15T00:13:05.820Z,11.07
2018-12-15T00:16:09.123Z,11.33
2018-12-15T00:19:12.333Z,11.50
2018-12-15T00:22:15.499Z,11.70
2018-12-15T00:25:18.708Z,11.67
2018-12-15T00:28:21.912Z,10.97
2018-12-15T00:31:25.106Z,11.53
2018-12-15T00:34:28.325Z,11.63
2018-12-15T00:37:31.589Z,10.70
2018-12-15T00:40:34.956Z,11.30
2018-12-15T00:43:38.187Z,12.10
2018-12-15T00:46:42.865Z,11.83
2018-12-15T00:49:46.532Z,12.93
2018-12-15T00:52:50.194Z,11.60
2018-12-15T00:55:53.461Z,12.03
2018-12-15T00:58:56.839Z,12.50
2018-12-15T01:02:00.195Z,11.60
2018-12-15T01:05:03.532Z,12.30
2018-12-15T01:08:07.718Z,12.93
2018-12-15T01:11:11.286Z,11.87
2018-12-15T01:14:14.552Z,11.60
2018-12-15T01:17:20.710Z,12.83
2018-12-15T01:20:24.174Z,11.90
2018-12-15T01:23:27.498Z,13.07
2018-12-15T01:26:30.675Z,12.57
2018-12-15T01:29:34.027Z,11.37
2018-12-15T01:32:37.333Z,13.67
2018-12-15T01:35:40.523Z,12.93
2018-12-15T01:38:43.756Z,11.90
2018-12-15T01:41:47.015Z,11.87
2018-12-15T01:44:50.245Z,12.53
2018-12-15T01:47:53.516Z,11.13
2018-12-15T01:50:56.772Z,11.13
2018-12-15T01:54:00.121Z,11.77
2018-12-15T01:57:03.436Z,11.80
2018-12-15T02:00:08.172Z,11.70
2018-12-15T02:03:11.353Z,12.20
2018-12-15T02:06:14.545Z,11.43
2018-12-15T02:09:17.726Z,11.83
2018-12-15T02:12:21.015Z,11.70
2018-12-15T02:15:24.315Z,12.03
2018-12-15T02:18:27.521Z,11.77
2018-12-15T02:21:30.727Z,11.80
2018-12-15T02:24:33.986Z,11.57
2018-12-15T02:27:37.225Z,11.97
2018-12-15T02:30:40.531Z,11.90
2018-12-15T02:33:43.801Z,12.47
2018-12-15T02:36:47.237Z,11.43
2018-12-15T02:39:50.531Z,11.80
2018-12-15T02:42:53.703Z,11.33
2018-12-15T02:45:56.993Z,10.67
2018-12-15T02:49:00.252Z,11.47
2018-12-15T02:52:03.586Z,11.50
2018-12-15T02:55:06.978Z,10.87
2018-12-15T02:58:10.412Z,11.87
2018-12-15T03:01:14.801Z,11.63
2018-12-15T03:04:18.111Z,11.43
2018-12-15T03:07:22.461Z,12.00
2018-12-15T03:10:25.677Z,11.90
2018-12-15T03:13:28.924Z,11.90
2018-12-15T03:16:32.312Z,11.80
2018-12-15T03:19:35.616Z,11.87
2018-12-15T03:22:38.835Z,12.17
2018-12-15T03:25:42.076Z,12.77
2018-12-15T03:28:45.391Z,10.93
2018-12-15T03:31:48.546Z,11.37
2018-12-15T03:34:51.715Z,10.27
2018-12-15T03:37:54.925Z,11.27
2018-12-15T03:40:58.505Z,12.00
2018-12-15T03:44:01.704Z,11.87
2018-12-15T03:47:04.939Z,12.27
2018-12-15T03:50:08.275Z,11.63
2018-12-15T03:53:12.728Z,11.67
2018-12-15T03:56:15.899Z,11.17
2018-12-15T03:59:20.481Z,11.57
2018-12-15T04:02:23.696Z,11.70
2018-12-15T04:05:26.995Z,11.90
2018-12-15T04:08:30.237Z,12.83
2018-12-15T04:11:33.450Z,11.80
2018-12-15T04:14:36.649Z,13.23
2018-12-15T04:17:39.957Z,12.50
2018-12-15T04:20:43.172Z,12.23
2018-12-15T04:23:48.029Z,13.10
2018-12-15T04:26:52.625Z,11.83
2018-12-15T04:29:55.913Z,11.83
2018-12-15T04:32:59.189Z,11.40
2018-12-15T04:36:14.542Z,11.77
2018-12-15T04:39:17.859Z,12.13
2018-12-15T04:42:21.285Z,10.27
2018-12-15T04:45:24.485Z,10.30
2018-12-15T04:48:27.723Z,11.00
2018-12-15T04:51:32.389Z,10.83
2018-12-15T04:54:36.013Z,10.87
2018-12-15T04:57:39.181Z,10.37
2018-12-15T05:00:42.526Z,10.77
2018-12-15T05:03:45.720Z,10.93
2018-12-15T05:06:49.009Z,10.43
2018-12-15T05:09:52.232Z,10.13
2018-12-15T05:12:55.409Z,9.80
2018-12-15T05:15:58.597Z,10.20
2018-12-15T05:19:01.760Z,10.30
2018-12-15T05:22:05.701Z,10.23
2018-12-15T05:25:09.046Z,9.57
2018-12-15T05:28:12.382Z,9.73
2018-12-15T05:31:15.940Z,9.40
2018-12-15T05:34:19.218Z,9.23
2018-12-15T05:37:22.390Z,9.90
2018-12-15T05:40:25.594Z,10.37
2018-12-15T05:43:28.834Z,10.33
2018-12-15T05:46:32.018Z,10.43
2018-12-15T05:49:36.626Z,10.67
2018-12-15T05:52:39.801Z,10.73
2018-12-15T05:55:43.012Z,10.03
2018-12-15T05:58:46.419Z,10.27
2018-12-15T06:01:49.614Z,10.27
2018-12-15T06:04:53.890Z,11.27
2018-12-15T06:07:57.145Z,10.43
2018-12-15T06:11:00.347Z,10.17
2018-12-15T06:14:04.235Z,9.87
2018-12-15T06:17:07.587Z,9.80
2018-12-15T06:20:10.773Z,9.77
2018-12-15T06:23:13.972Z,10.40
2018-12-15T06:26:17.145Z,10.03
2018-12-15T06:29:20.448Z,9.83
2018-12-15T06:32:23.621Z,9.17
2018-12-15T06:35:26.904Z,9.00
2018-12-15T06:38:30.295Z,10.57
2018-12-15T06:41:33.589Z,9.50
2018-12-15T06:44:36.794Z,11.17
2018-12-15T06:47:40.073Z,11.87
2018-12-15T06:50:43.278Z,10.27
2018-12-15T06:53:46.573Z,9.70
2018-12-15T06:56:49.827Z,9.43
2018-12-15T06:59:53.012Z,9.60
2018-12-15T07:02:56.246Z,10.03
2018-12-15T07:05:59.457Z,9.47
2018-12-15T07:09:02.649Z,9.00
2018-12-15T07:12:05.850Z,10.20
2018-12-15T07:15:09.225Z,10.03
2018-12-15T07:18:12.477Z,10.43
2018-12-15T07:21:15.635Z,9.37
2018-12-15T07:24:19.295Z,9.33
2018-12-15T07:27:22.498Z,9.97
2018-12-15T07:30:25.845Z,9.73
2018-12-15T07:33:29.035Z,9.33
2018-12-15T07:36:32.309Z,9.97
2018-12-15T07:39:35.487Z,10.67
2018-12-15T07:42:38.706Z,9.73
2018-12-15T07:45:41.892Z,9.57
2018-12-15T07:48:51.391Z,9.50
2018-12-15T07:51:51.557Z,9.13
2018-12-15T07:54:54.747Z,9.77
2018-12-15T07:57:57.944Z,9.33
2018-12-15T08:01:01.199Z,10.23
2018-12-15T08:04:04.567Z,10.37
2018-12-15T08:07:07.855Z,10.33
2018-12-15T08:10:11.202Z,10.43
2018-12-15T08:13:32.579Z,9.40
2018-12-15T08:16:35.844Z,10.40
2018-12-15T08:19:39.824Z,10.30
2018-12-15T08:22:43.189Z,9.63
2018-12-15T08:25:46.810Z,10.13
2018-12-15T08:28:50.128Z,10.00
2018-12-15T08:31:54.846Z,10.43
2018-12-15T08:34:58.022Z,10.40
2018-12-15T08:38:01.815Z,12.10
2018-12-15T08:41:05.123Z,11.20
2018-12-15T08:44:08.472Z,10.80
2018-12-15T08:47:11.718Z,11.63
2018-12-15T08:50:15.215Z,11.40
2018-12-15T08:53:18.608Z,11.67
2018-12-15T08:56:21.905Z,12.30
2018-12-15T08:59:25.088Z,11.67
2018-12-15T09:02:28.381Z,12.60
2018-12-15T09:05:31.574Z,11.67
2018-12-15T09:08:34.903Z,12.63
2018-12-15T09:11:38.468Z,12.30
2018-12-15T09:14:41.780Z,12.33
2018-12-15T09:17:46.693Z,13.07
2018-12-15T09:20:49.969Z,13.93
2018-12-15T09:23:53.362Z,13.63
2018-12-15T09:26:56.625Z,13.70
2018-12-15T09:29:59.839Z,13.77
2018-12-15T09:33:03.027Z,13.67
2018-12-15T09:36:06.410Z,13.60
2018-12-15T09:39:09.622Z,13.50
2018-12-15T09:42:12.898Z,14.13
2018-12-15T09:45:16.092Z,12.83
2018-12-15T09:48:19.276Z,12.60
2018-12-15T09:51:22.477Z,13.40
2018-12-15T09:54:25.716Z,13.53
2018-12-15T09:57:29.367Z,13.23
2018-12-15T10:00:32.569Z,13.60
2018-12-15T10:03:35.761Z,12.37
2018-12-15T10:06:38.922Z,10.70
2018-12-15T10:09:42.093Z,11.37
2018-12-15T10:12:45.324Z,11.87
2018-12-15T10:15:48.482Z,11.27
2018-12-15T10:18:52.064Z,10.87
2018-12-15T10:21:55.450Z,11.00
2018-12-15T10:24:59.790Z,10.33
2018-12-15T10:28:02.943Z,11.57
2018-12-15T10:31:11.761Z,11.20
2018-12-15T10:34:15.012Z,10.83
2018-12-15T10:37:18.311Z,10.30
2018-12-15T10:40:22.143Z,9.43
2018-12-15T10:43:25.313Z,10.33
2018-12-15T10:46:28.554Z,10.07
2018-12-15T10:49:31.864Z,10.00
2018-12-15T10:52:35.111Z,10.40
2018-12-15T10:55:38.346Z,9.47
2018-12-15T10:58:41.530Z,9.47
2018-12-15T11:01:44.684Z,8.20
2018-12-15T11:04:48.824Z,9.20
2018-12-15T11:07:52.456Z,10.03
2018-12-15T11:10:55.692Z,8.50
2018-12-15T11:13:58.868Z,9.17
2018-12-15T11:17:02.377Z,8.63
2018-12-15T11:20:06.009Z,8.30
2018-12-15T11:23:09.267Z,8.23
2018-12-15T11:26:12.448Z,7.83
2018-12-15T11:29:15.689Z,8.63
2018-12-15T11:32:18.945Z,7.63
2018-12-15T11:35:22.206Z,8.00
2018-12-15T11:38:25.491Z,7.67
2018-12-15T11:41:28.657Z,8.40
2018-12-15T11:44:31.845Z,7.70
2018-12-15T11:47:36.657Z,7.47
2018-12-15T11:50:39.845Z,8.60
2018-12-15T11:53:43.083Z,8.33
2018-12-15T11:56:46.349Z,8.07
2018-12-15T11:59:49.558Z,8.10
2018-12-15T12:02:52.820Z,8.20
2018-12-15T12:05:55.986Z,8.17
2018-12-15T12:08:59.248Z,7.40
2018-12-15T12:12:02.616Z,7.20
2018-12-15T12:15:06.497Z,8.17
2018-12-15T12:18:09.668Z,7.73
2018-12-15T12:21:12.928Z,8.03
2018-12-15T12:24:16.114Z,8.83
2018-12-15T12:27:19.314Z,8.53
2018-12-15T12:30:22.569Z,8.60
2018-12-15T12:33:25.836Z,8.73
2018-12-15T12:36:29.043Z,8.93
2018-12-15T12:39:32.231Z,8.70
2018-12-15T12:42:35.934Z,8.50
2018-12-15T12:45:39.138Z,8.07
2018-12-15T12:48:42.315Z,9.27
2018-12-15T12:51:45.553Z,9.50
2018-12-15T12:54:48.734Z,9.80
2018-12-15T12:57:51.898Z,10.00
2018-12-15T13:00:55.048Z,9.93
2018-12-15T13:03:58.312Z,10.30
2018-12-15T13:07:01.486Z,9.83
2018-12-15T13:10:04.905Z,9.40
2018-12-15T13:13:08.088Z,10.67
2018-12-15T13:16:11.343Z,10.23
2018-12-15T13:19:15.842Z,10.60
2018-12-15T13:22:19.162Z,10.67
2018-12-15T13:25:22.428Z,10.73
2018-12-15T13:28:25.722Z,10.63
2018-12-15T13:31:29.089Z,11.07
2018-12-15T13:34:32.386Z,11.17
2018-12-15T13:37:35.743Z,11.33
2018-12-15T13:40:38.930Z,9.97
2018-12-15T13:43:42.084Z,11.40
2018-12-15T13:46:45.299Z,10.37
2018-12-15T13:49:48.566Z,10.23
2018-12-15T13:52:51.887Z,10.37
2018-12-15T13:55:55.154Z,10.77
2018-12-15T13:58:58.344Z,9.77
2018-12-15T14:02:01.529Z,9.47
2018-12-15T14:05:04.849Z,7.53
2018-12-15T14:08:08.025Z,6.20
2018-12-15T14:11:11.214Z,6.40
2018-12-15T14:14:15.580Z,6.67
2018-12-15T14:17:18.821Z,6.33
2018-12-15T14:20:22.050Z,6.63
2018-12-15T14:23:25.497Z,6.20
2018-12-15T14:26:28.831Z,7.03
2018-12-15T14:29:33.852Z,6.67
2018-12-15T14:32:37.162Z,7.10
2018-12-15T14:35:40.352Z,7.20
2018-12-15T14:38:44.670Z,7.30
2018-12-15T14:41:47.817Z,7.80
2018-12-15T14:44:51.061Z,7.10
2018-12-15T14:47:54.719Z,7.20
2018-12-15T14:50:57.912Z,8.17
2018-12-15T14:54:01.168Z,8.47
2018-12-15T14:57:04.495Z,7.57
2018-12-15T15:00:09.482Z,10.63
2018-12-15T15:03:14.149Z,8.60
2018-12-15T15:06:17.362Z,8.53
2018-12-15T15:09:20.670Z,9.80
2018-12-15T15:12:24.557Z,10.10
2018-12-15T15:15:27.729Z,9.70
2018-12-15T15:18:30.886Z,10.03
2018-12-15T15:21:34.063Z,9.50
2018-12-15T15:24:37.327Z,9.50
2018-12-15T15:27:40.719Z,10.10
2018-12-15T15:30:43.911Z,10.80
2018-12-15T15:33:47.135Z,11.33
2018-12-15T15:36:50.401Z,10.93
2018-12-15T15:39:53.674Z,11.10
2018-12-15T15:42:57.711Z,10.13
2018-12-15T15:46:00.881Z,11.50
2018-12-15T15:49:04.414Z,11.17
2018-12-15T15:52:07.578Z,11.70
2018-12-15T15:55:10.901Z,11.50
2018-12-15T15:58:14.094Z,11.90
2018-12-15T16:01:17.330Z,11.70
2018-12-15T16:04:21.047Z,12.60
2018-12-15T16:07:24.269Z,12.27
2018-12-15T16:10:27.431Z,15.47
2018-12-15T16:13:30.694Z,12.00
2018-12-15T16:16:36.024Z,15.70
2018-12-15T16:19:39.432Z,12.80
2018-12-15T16:22:42.688Z,12.77
2018-12-15T16:25:45.888Z,19.27
2018-12-15T16:28:49.146Z,12.60
2018-12-15T16:31:52.322Z,13.50
2018-12-15T16:34:55.595Z,11.63
2018-12-15T16:37:58.764Z,10.13
2018-12-15T16:41:01.972Z,9.87
2018-12-15T16:44:05.338Z,9.80
2018-12-15T16:47:08.647Z,9.97
2018-12-15T16:50:14.769Z,11.20
2018-12-15T16:53:17.946Z,9.97
2018-12-15T16:56:21.263Z,10.27
2018-12-15T16:59:24.437Z,9.90
2018-12-15T17:02:27.607Z,10.03
2018-12-15T17:05:30.856Z,9.43
2018-12-15T17:08:35.239Z,10.27
2018-12-15T17:11:38.654Z,9.87
2018-12-15T17:14:41.801Z,9.73
2018-12-15T17:17:45.022Z,9.17
2018-12-15T17:20:48.509Z,8.47
2018-12-15T17:23:51.683Z,9.33
2018-12-15T17:26:54.857Z,9.67
2018-12-15T17:29:58.051Z,8.10
2018-12-15T17:33:01.330Z,9.40
2018-12-15T17:36:04.595Z,9.87
2018-12-15T17:39:08.702Z,8.50
2018-12-15T17:42:11.893Z,9.70
2018-12-15T17:45:15.127Z,8.23
2018-12-15T17:48:18.327Z,8.90
2018-12-15T17:51:21.495Z,9.17
2018-12-15T17:54:24.816Z,9.57
2018-12-15T17:57:27.991Z,9.13
2018-12-15T18:00:31.334Z,10.43
2018-12-15T18:03:34.555Z,8.90
2018-12-15T18:06:37.842Z,9.93
2018-12-15T18:09:41.192Z,9.80
2018-12-15T18:12:44.479Z,9.07
2018-12-15T18:15:47.785Z,9.13
2018-12-15T18:18:51.253Z,8.43
2018-12-15T18:21:54.479Z,8.07
2018-12-15T18:24:57.682Z,8.17
2018-12-15T18:28:00.875Z,8.67
2018-12-15T18:31:04.106Z,7.37
2018-12-15T18:34:07.377Z,6.90
2018-12-15T18:37:10.628Z,6.97
2018-12-15T18:40:13.853Z,6.97
2018-12-15T18:43:17.021Z,7.77
2018-12-15T18:46:20.184Z,6.73
2018-12-15T18:49:23.364Z,8.53
2018-12-15T18:52:26.528Z,7.40
2018-12-15T18:55:29.820Z,7.20
2018-12-15T18:58:33.215Z,7.97
2018-12-15T19:01:36.394Z,6.73
2018-12-15T19:04:39.570Z,8.47
2018-12-15T19:07:42.744Z,7.83
2018-12-15T19:10:46.089Z,8.37
2018-12-15T19:13:49.515Z,8.60
2018-12-15T19:16:52.853Z,8.27
2018-12-15T19:19:56.040Z,8.63
2018-12-15T19:22:59.242Z,9.27
2018-12-15T19:26:02.468Z,9.77
2018-12-15T19:29:05.657Z,10.13
2018-12-15T19:32:08.986Z,9.80
2018-12-15T19:35:12.243Z,10.53
2018-12-15T19:38:15.462Z,10.83
2018-12-15T19:41:18.654Z,10.37
2018-12-15T19:44:21.926Z,10.17
2018-12-15T19:47:25.214Z,8.97
2018-12-15T19:50:29.422Z,10.37
2018-12-15T19:53:32.650Z,10.33
2018-12-15T19:56:37.110Z,9.80
2018-12-15T19:59:40.299Z,9.60
2018-12-15T20:02:43.695Z,8.57
2018-12-15T20:05:47.106Z,9.93
2018-12-15T20:08:50.915Z,9.67
2018-12-15T20:11:54.209Z,8.97
2018-12-15T20:14:57.551Z,9.10
2018-12-15T20:18:00.818Z,9.50
2018-12-15T20:21:03.997Z,8.87
2018-12-15T20:24:07.224Z,8.70
2018-12-15T20:27:10.475Z,8.93
2018-12-15T20:30:13.824Z,8.70
2018-12-15T20:33:17.136Z,8.57
2018-12-15T20:36:22.167Z,8.23
2018-12-15T20:39:25.456Z,8.23
2018-12-15T20:42:28.728Z,9.47
2018-12-15T20:45:31.963Z,8.83
2018-12-15T20:48:35.238Z,8.63
2018-12-15T20:51:42.659Z,8.40
2018-12-15T20:54:43.746Z,8.30
2018-12-15T20:57:47.040Z,7.70
2018-12-15T21:00:50.264Z,7.40
2018-12-15T21:03:53.724Z,7.60
2018-12-15T21:06:57.122Z,7.80
2018-12-15T21:10:00.848Z,7.77
2018-12-15T21:13:04.210Z,6.40
2018-12-15T21:16:07.672Z,7.27
2018-12-15T21:19:10.876Z,7.03
2018-12-15T21:22:14.175Z,6.90
2018-12-15T21:25:17.406Z,8.00
2018-12-15T21:28:20.724Z,6.77
2018-12-15T21:31:24.031Z,7.60
2018-12-15T21:34:27.216Z,7.33
2018-12-15T21:37:31.570Z,7.57
2018-12-15T21:40:34.829Z,6.03
2018-12-15T21:43:38.013Z,7.40
2018-12-15T21:46:41.200Z,6.53
2018-12-15T21:49:44.378Z,7.17
2018-12-15T21:52:47.647Z,8.37
2018-12-15T21:55:51.011Z,6.80
2018-12-15T21:58:54.318Z,6.97
2018-12-15T22:01:57.504Z,5.47
2018-12-15T22:05:00.819Z,6.53
2018-12-15T22:08:04.095Z,5.27
2018-12-15T22:11:07.313Z,5.20
2018-12-15T22:14:11.480Z,5.80
2018-12-15T22:17:14.772Z,5.53
2018-12-15T22:20:18.629Z,5.20
2018-12-15T22:23:22.023Z,4.50
2018-12-15T22:26:25.193Z,5.37
2018-12-15T22:29:28.769Z,5.63
2018-12-15T22:32:31.961Z,5.60
2018-12-15T22:35:35.239Z,5.83
2018-12-15T22:38:38.485Z,5.67
2018-12-15T22:41:42.468Z,5.60
2018-12-15T22:44:45.660Z,6.20
2018-12-15T22:47:48.898Z,6.40
2018-12-15T22:50:52.137Z,5.90
2018-12-15T22:53:55.359Z,7.40
2018-12-15T22:56:58.581Z,6.07
2018-12-15T23:00:01.936Z,6.97
2018-12-15T23:03:05.321Z,7.20
2018-12-15T23:06:08.703Z,7.30
2018-12-15T23:09:11.911Z,6.77
2018-12-15T23:12:15.158Z,7.33
2018-12-15T23:15:18.371Z,7.67
2018-12-15T23:18:21.582Z,8.97
2018-12-15T23:21:24.948Z,10.60
2018-12-15T23:24:28.146Z,7.67
2018-12-15T23:27:31.542Z,7.73
2018-12-15T23:30:34.836Z,8.47
2018-12-15T23:33:38.305Z,7.23
2018-12-15T23:36:41.580Z,8.10
2018-12-15T23:39:44.756Z,9.37
2018-12-15T23:42:48.041Z,9.63
2018-12-15T23:45:51.209Z,8.17
2018-12-15T23:48:54.411Z,9.07
2018-12-15T23:51:58.451Z,7.33
2018-12-15T23:55:01.755Z,9.97
2018-12-15T23:58:04.941Z,8.40
